Terminal Aerodrome Forecast
Issued by NWS

Home | Current Version | Previous Version | Text Only | Print | Product List | Glossary On
Versions: 1 2 3 4 5 6 7 8 9 10 11 12 13 14 15 16
000
FTUS43 KBIS 030500
TAFDIK
TAF
KDIK 030520Z 0306/0406 VRB03KT P6SM FEW250
     FM031600 12011KT P6SM SCT100
     FM040000 28011KT P6SM SCT100=

USA.gov is the U.S. government's official web portal to all federal, state and local government web resources and services.